sensor_id;sensor_type;location;lat;lon;timestamp;pressure;altitude;pressure_sealevel;temperature;humidity
54465;BME280;40374;49.480;20.016;2022-10-16T00:01:43;95247.81;;;9.85;100.00
54465;BME280;40374;49.480;20.016;2022-10-16T00:04:11;95248.91;;;9.89;100.00
54465;BME280;40374;49.480;20.016;2022-10-16T00:06:39;95248.66;;;9.95;100.00
54465;BME280;40374;49.480;20.016;2022-10-16T00:09:07;95251.88;;;9.92;100.00
54465;BME280;40374;49.480;20.016;2022-10-16T00:11:36;95252.94;;;9.86;100.00
54465;BME280;40374;49.480;20.016;2022-10-16T00:14:07;95253.75;;;9.87;100.00
54465;BME280;40374;49.480;20.016;2022-10-16T00:16:35;95260.75;;;9.83;100.00
54465;BME280;40374;49.480;20.016;2022-10-16T00:19:03;95266.91;;;9.73;100.00
54465;BME280;40374;49.480;20.016;2022-10-16T00:21:31;95252.16;;;9.81;100.00
54465;BME280;40374;49.480;20.016;2022-10-16T00:24:05;95256.44;;;9.82;100.00
54465;BME280;40374;49.480;20.016;2022-10-16T00:26:34;95260.22;;;9.81;100.00
54465;BME280;40374;49.480;20.016;2022-10-16T00:29:02;95251.59;;;9.68;100.00
54465;BME280;40374;49.480;20.016;2022-10-16T00:31:30;95267.72;;;9.79;100.00
54465;BME280;40374;49.480;20.016;2022-10-16T00:33:58;95268.25;;;9.81;100.00
54465;BME280;40374;49.480;20.016;2022-10-16T00:36:26;95269.06;;;9.81;100.00
54465;BME280;40374;49.480;20.016;2022-10-16T00:38:55;95273.63;;;9.81;100.00
54465;BME280;40374;49.480;20.016;2022-10-16T00:41:24;95273.88;;;9.74;100.00
54465;BME280;40374;49.480;20.016;2022-10-16T00:43:57;95270.09;;;9.70;100.00
54465;BME280;40374;49.480;20.016;2022-10-16T00:46:28;95275.75;;;9.63;100.00
54465;BME280;40374;49.480;20.016;2022-10-16T00:49:05;95284.09;;;9.62;100.00
54465;BME280;40374;49.480;20.016;2022-10-16T00:51:42;95279.22;;;9.64;100.00
54465;BME280;40374;49.480;20.016;2022-10-16T00:54:16;95285.13;;;9.61;100.00
54465;BME280;40374;49.480;20.016;2022-10-16T00:56:46;95299.91;;;9.63;100.00
54465;BME280;40374;49.480;20.016;2022-10-16T00:59:20;95293.47;;;9.69;100.00
54465;BME280;40374;49.480;20.016;2022-10-16T01:01:48;95292.94;;;9.67;100.00
54465;BME280;40374;49.480;20.016;2022-10-16T01:04:15;95292.13;;;9.67;100.00
54465;BME280;40374;49.480;20.016;2022-10-16T01:09:45;95303.16;;;9.70;100.00
54465;BME280;40374;49.480;20.016;2022-10-16T01:12:20;95307.16;;;9.58;100.00
54465;BME280;40374;49.480;20.016;2022-10-16T01:14:58;95310.41;;;9.60;100.00
54465;BME280;40374;49.480;20.016;2022-10-16T01:17:36;95304.16;;;9.49;100.00
54465;BME280;40374;49.480;20.016;2022-10-16T01:23:06;95311.13;;;9.40;100.00
54465;BME280;40374;49.480;20.016;2022-10-16T01:28:34;95309.50;;;9.28;100.00
54465;BME280;40374;49.480;20.016;2022-10-16T01:31:04;95315.94;;;9.32;100.00
54465;BME280;40374;49.480;20.016;2022-10-16T01:33:42;95318.38;;;9.44;100.00
54465;BME280;40374;49.480;20.016;2022-10-16T01:36:28;95311.38;;;9.38;100.00
54465;BME280;40374;49.480;20.016;2022-10-16T01:39:00;95312.78;;;9.56;100.00
54465;BME280;40374;49.480;20.016;2022-10-16T01:41:33;95313.34;;;9.58;100.00
54465;BME280;40374;49.480;20.016;2022-10-16T01:44:03;95322.44;;;9.52;100.00
54465;BME280;40374;49.480;20.016;2022-10-16T01:46:34;95314.94;;;9.59;100.00
54465;BME280;40374;49.480;20.016;2022-10-16T01:49:03;95321.13;;;9.60;100.00
54465;BME280;40374;49.480;20.016;2022-10-16T01:51:32;95316.31;;;9.62;100.00
54465;BME280;40374;49.480;20.016;2022-10-16T01:54:01;95321.13;;;9.65;100.00
54465;BME280;40374;49.480;20.016;2022-10-16T01:56:29;95320.38;;;9.74;100.00
54465;BME280;40374;49.480;20.016;2022-10-16T01:58:59;95320.63;;;9.73;100.00
54465;BME280;40374;49.480;20.016;2022-10-16T02:01:31;95321.97;;;9.75;100.00
54465;BME280;40374;49.480;20.016;2022-10-16T02:04:08;95318.19;;;9.71;100.00
54465;BME280;40374;49.480;20.016;2022-10-16T02:06:37;95315.53;;;9.77;100.00
54465;BME280;40374;49.480;20.016;2022-10-16T02:09:04;95330.06;;;9.81;100.00
54465;BME280;40374;49.480;20.016;2022-10-16T02:11:31;95326.50;;;9.70;100.00
54465;BME280;40374;49.480;20.016;2022-10-16T02:14:04;95318.72;;;9.63;100.00
54465;BME280;40374;49.480;20.016;2022-10-16T02:16:40;95335.94;;;9.78;100.00
54465;BME280;40374;49.480;20.016;2022-10-16T02:19:15;95339.97;;;9.80;100.00
54465;BME280;40374;49.480;20.016;2022-10-16T02:21:44;95343.22;;;9.87;100.00
54465;BME280;40374;49.480;20.016;2022-10-16T02:24:33;95338.66;;;9.93;100.00
54465;BME280;40374;49.480;20.016;2022-10-16T02:27:22;95339.16;;;9.85;100.00
54465;BME280;40374;49.480;20.016;2022-10-16T02:29:56;95330.28;;;9.74;100.00
54465;BME280;40374;49.480;20.016;2022-10-16T02:32:30;95327.81;;;9.57;100.00
54465;BME280;40374;49.480;20.016;2022-10-16T02:34:59;95340.19;;;9.63;100.00
54465;BME280;40374;49.480;20.016;2022-10-16T02:37:28;95342.34;;;9.61;100.00
54465;BME280;40374;49.480;20.016;2022-10-16T02:39:57;95341.25;;;9.57;100.00
54465;BME280;40374;49.480;20.016;2022-10-16T02:42:42;95337.50;;;9.63;100.00
54465;BME280;40374;49.480;20.016;2022-10-16T02:45:11;95343.41;;;9.60;100.00
54465;BME280;40374;49.480;20.016;2022-10-16T02:47:38;95341.78;;;9.59;100.00
54465;BME280;40374;49.480;20.016;2022-10-16T02:50:06;95338.31;;;9.53;100.00
54465;BME280;40374;49.480;20.016;2022-10-16T02:52:33;95339.38;;;9.58;100.00
54465;BME280;40374;49.480;20.016;2022-10-16T02:55:01;95332.09;;;9.48;100.00
54465;BME280;40374;49.480;20.016;2022-10-16T02:57:28;95341.75;;;9.39;100.00
54465;BME280;40374;49.480;20.016;2022-10-16T02:59:56;95347.31;;;9.32;100.00
54465;BME280;40374;49.480;20.016;2022-10-16T03:02:23;95346.53;;;9.31;100.00
54465;BME280;40374;49.480;20.016;2022-10-16T03:04:50;95346.47;;;9.21;100.00
54465;BME280;40374;49.480;20.016;2022-10-16T03:07:17;95353.53;;;9.32;100.00
54465;BME280;40374;49.480;20.016;2022-10-16T03:09:45;95355.06;;;9.23;100.00
54465;BME280;40374;49.480;20.016;2022-10-16T03:12:12;95362.81;;;9.09;100.00
54465;BME280;40374;49.480;20.016;2022-10-16T03:14:40;95367.81;;;9.01;100.00
54465;BME280;40374;49.480;20.016;2022-10-16T03:17:07;95362.50;;;9.06;100.00
54465;BME280;40374;49.480;20.016;2022-10-16T03:19:35;95360.63;;;9.06;100.00
54465;BME280;40374;49.480;20.016;2022-10-16T03:22:02;95363.53;;;9.00;100.00
54465;BME280;40374;49.480;20.016;2022-10-16T03:24:30;95367.28;;;8.99;100.00
54465;BME280;40374;49.480;20.016;2022-10-16T03:26:57;95357.00;;;8.85;100.00
54465;BME280;40374;49.480;20.016;2022-10-16T03:29:25;95366.91;;;8.80;100.00
54465;BME280;40374;49.480;20.016;2022-10-16T03:31:53;95378.84;;;8.62;100.00
54465;BME280;40374;49.480;20.016;2022-10-16T03:34:21;95381.53;;;8.62;100.00
54465;BME280;40374;49.480;20.016;2022-10-16T03:36:48;95373.50;;;8.62;100.00
54465;BME280;40374;49.480;20.016;2022-10-16T03:39:16;95374.97;;;8.47;100.00
54465;BME280;40374;49.480;20.016;2022-10-16T03:41:43;95366.91;;;8.42;100.00
54465;BME280;40374;49.480;20.016;2022-10-16T03:44:11;95378.09;;;8.39;100.00
54465;BME280;40374;49.480;20.016;2022-10-16T03:46:38;95379.38;;;8.31;100.00
54465;BME280;40374;49.480;20.016;2022-10-16T03:49:06;95379.13;;;8.33;100.00
54465;BME280;40374;49.480;20.016;2022-10-16T03:51:35;95375.34;;;8.29;100.00
54465;BME280;40374;49.480;20.016;2022-10-16T03:54:03;95385.69;;;8.15;100.00
54465;BME280;40374;49.480;20.016;2022-10-16T03:56:31;95384.78;;;8.04;100.00
54465;BME280;40374;49.480;20.016;2022-10-16T03:58:58;95381.78;;;8.01;100.00
54465;BME280;40374;49.480;20.016;2022-10-16T04:01:25;95391.03;;;7.88;100.00
54465;BME280;40374;49.480;20.016;2022-10-16T04:03:53;95399.72;;;7.73;100.00
54465;BME280;40374;49.480;20.016;2022-10-16T04:06:20;95400.38;;;7.63;100.00
54465;BME280;40374;49.480;20.016;2022-10-16T04:08:48;95394.47;;;7.61;100.00
54465;BME280;40374;49.480;20.016;2022-10-16T04:11:15;95402.44;;;7.78;100.00
54465;BME280;40374;49.480;20.016;2022-10-16T04:13:42;95403.88;;;7.64;100.00
54465;BME280;40374;49.480;20.016;2022-10-16T04:16:10;95407.31;;;7.59;100.00
54465;BME280;40374;49.480;20.016;2022-10-16T04:18:38;95402.06;;;7.69;100.00
54465;BME280;40374;49.480;20.016;2022-10-16T04:21:06;95379.41;;;7.55;100.00
54465;BME280;40374;49.480;20.016;2022-10-16T04:23:34;95399.50;;;7.58;100.00
54465;BME280;40374;49.480;20.016;2022-10-16T04:26:02;95402.88;;;7.70;100.00
54465;BME280;40374;49.480;20.016;2022-10-16T04:28:31;95389.81;;;7.51;100.00
54465;BME280;40374;49.480;20.016;2022-10-16T04:31:04;95420.00;;;7.69;100.00
54465;BME280;40374;49.480;20.016;2022-10-16T04:33:31;95411.97;;;7.69;100.00
54465;BME280;40374;49.480;20.016;2022-10-16T04:36:01;95410.53;;;7.83;100.00
54465;BME280;40374;49.480;20.016;2022-10-16T04:38:29;95416.00;;;7.71;100.00
54465;BME280;40374;49.480;20.016;2022-10-16T04:40:56;95419.72;;;7.70;100.00
54465;BME280;40374;49.480;20.016;2022-10-16T04:43:24;95410.06;;;7.64;100.00
54465;BME280;40374;49.480;20.016;2022-10-16T04:45:52;95402.63;;;7.49;100.00
54465;BME280;40374;49.480;20.016;2022-10-16T04:48:20;95418.53;;;7.56;100.00
54465;BME280;40374;49.480;20.016;2022-10-16T04:50:47;95433.75;;;7.56;100.00
54465;BME280;40374;49.480;20.016;2022-10-16T04:53:21;95429.09;;;7.46;100.00
54465;BME280;40374;49.480;20.016;2022-10-16T04:55:49;95421.75;;;7.58;100.00
54465;BME280;40374;49.480;20.016;2022-10-16T04:58:17;95415.28;;;7.54;100.00
54465;BME280;40374;49.480;20.016;2022-10-16T05:00:44;95427.34;;;7.57;100.00
54465;BME280;40374;49.480;20.016;2022-10-16T05:03:13;95420.63;;;7.54;100.00
54465;BME280;40374;49.480;20.016;2022-10-16T05:05:45;95427.34;;;7.57;100.00
54465;BME280;40374;49.480;20.016;2022-10-16T05:08:14;95426.66;;;7.44;100.00
54465;BME280;40374;49.480;20.016;2022-10-16T05:10:42;95433.66;;;7.28;100.00
54465;BME280;40374;49.480;20.016;2022-10-16T05:13:11;95429.75;;;7.14;100.00
54465;BME280;40374;49.480;20.016;2022-10-16T05:15:38;95436.78;;;7.20;100.00
54465;BME280;40374;49.480;20.016;2022-10-16T05:18:06;95432.47;;;7.19;100.00
54465;BME280;40374;49.480;20.016;2022-10-16T05:20:34;95424.63;;;7.13;100.00
54465;BME280;40374;49.480;20.016;2022-10-16T05:23:01;95420.28;;;7.06;100.00
54465;BME280;40374;49.480;20.016;2022-10-16T05:25:29;95434.59;;;7.17;100.00
54465;BME280;40374;49.480;20.016;2022-10-16T05:27:56;95424.88;;;7.11;100.00
54465;BME280;40374;49.480;20.016;2022-10-16T05:30:24;95416.53;;;7.07;100.00
54465;BME280;40374;49.480;20.016;2022-10-16T05:32:51;95439.00;;;7.28;100.00
54465;BME280;40374;49.480;20.016;2022-10-16T05:35:19;95437.59;;;7.21;100.00
54465;BME280;40374;49.480;20.016;2022-10-16T05:37:47;95442.97;;;7.04;100.00
54465;BME280;40374;49.480;20.016;2022-10-16T05:40:15;95456.91;;;7.06;100.00
54465;BME280;40374;49.480;20.016;2022-10-16T05:42:43;95465.94;;;7.22;100.00
54465;BME280;40374;49.480;20.016;2022-10-16T05:45:11;95460.56;;;7.39;100.00
54465;BME280;40374;49.480;20.016;2022-10-16T05:47:39;95472.06;;;7.56;100.00
54465;BME280;40374;49.480;20.016;2022-10-16T05:50:07;95457.16;;;7.43;100.00
54465;BME280;40374;49.480;20.016;2022-10-16T05:52:34;95486.00;;;7.58;100.00
54465;BME280;40374;49.480;20.016;2022-10-16T05:55:02;95483.38;;;7.63;100.00
54465;BME280;40374;49.480;20.016;2022-10-16T05:57:30;95478.28;;;7.84;100.00
54465;BME280;40374;49.480;20.016;2022-10-16T05:59:57;95470.25;;;7.84;100.00
54465;BME280;40374;49.480;20.016;2022-10-16T06:02:24;95479.22;;;7.95;100.00
54465;BME280;40374;49.480;20.016;2022-10-16T06:04:52;95468.69;;;7.88;100.00
54465;BME280;40374;49.480;20.016;2022-10-16T06:07:22;95480.53;;;7.92;100.00
54465;BME280;40374;49.480;20.016;2022-10-16T06:09:51;95488.16;;;8.05;100.00
54465;BME280;40374;49.480;20.016;2022-10-16T06:12:18;95481.69;;;8.01;100.00
54465;BME280;40374;49.480;20.016;2022-10-16T06:14:46;95483.88;;;8.04;100.00
54465;BME280;40374;49.480;20.016;2022-10-16T06:17:14;95496.00;;;8.12;100.00
54465;BME280;40374;49.480;20.016;2022-10-16T06:19:42;95498.00;;;8.22;100.00
54465;BME280;40374;49.480;20.016;2022-10-16T06:22:09;95487.19;;;8.39;100.00
54465;BME280;40374;49.480;20.016;2022-10-16T06:24:37;95509.31;;;8.51;100.00
54465;BME280;40374;49.480;20.016;2022-10-16T06:27:04;95514.03;;;8.66;100.00
54465;BME280;40374;49.480;20.016;2022-10-16T06:29:32;95515.47;;;8.79;100.00
54465;BME280;40374;49.480;20.016;2022-10-16T06:31:59;95487.44;;;8.91;100.00
54465;BME280;40374;49.480;20.016;2022-10-16T06:34:27;95508.91;;;9.29;100.00
54465;BME280;40374;49.480;20.016;2022-10-16T06:36:54;95501.25;;;9.48;100.00
54465;BME280;40374;49.480;20.016;2022-10-16T06:39:22;95506.19;;;9.66;100.00
54465;BME280;40374;49.480;20.016;2022-10-16T06:41:49;95520.00;;;9.90;100.00
54465;BME280;40374;49.480;20.016;2022-10-16T06:44:17;95519.25;;;10.00;100.00
54465;BME280;40374;49.480;20.016;2022-10-16T06:46:44;95519.84;;;10.12;100.00
54465;BME280;40374;49.480;20.016;2022-10-16T06:49:12;95516.66;;;10.21;100.00
54465;BME280;40374;49.480;20.016;2022-10-16T06:51:39;95522.06;;;10.31;100.00
54465;BME280;40374;49.480;20.016;2022-10-16T06:54:09;95520.25;;;10.42;100.00
54465;BME280;40374;49.480;20.016;2022-10-16T06:56:37;95514.63;;;10.48;100.00
54465;BME280;40374;49.480;20.016;2022-10-16T06:59:04;95532.09;;;10.56;100.00
54465;BME280;40374;49.480;20.016;2022-10-16T07:01:33;95532.94;;;10.72;100.00
54465;BME280;40374;49.480;20.016;2022-10-16T07:04:01;95534.06;;;10.86;100.00
54465;BME280;40374;49.480;20.016;2022-10-16T07:06:32;95518.44;;;10.88;100.00
54465;BME280;40374;49.480;20.016;2022-10-16T07:09:02;95525.47;;;11.05;100.00
54465;BME280;40374;49.480;20.016;2022-10-16T07:11:30;95520.31;;;10.98;100.00
54465;BME280;40374;49.480;20.016;2022-10-16T07:13:58;95531.13;;;11.24;100.00
54465;BME280;40374;49.480;20.016;2022-10-16T07:16:28;95523.84;;;11.34;100.00
54465;BME280;40374;49.480;20.016;2022-10-16T07:19:00;95534.63;;;11.34;100.00
54465;BME280;40374;49.480;20.016;2022-10-16T07:21:30;95535.94;;;11.47;100.00
54465;BME280;40374;49.480;20.016;2022-10-16T07:23:59;95531.31;;;11.73;100.00
54465;BME280;40374;49.480;20.016;2022-10-16T07:26:30;95539.31;;;12.14;100.00
54465;BME280;40374;49.480;20.016;2022-10-16T07:28:58;95524.56;;;12.56;100.00
54465;BME280;40374;49.480;20.016;2022-10-16T07:31:26;95535.03;;;13.08;100.00
54465;BME280;40374;49.480;20.016;2022-10-16T07:33:54;95531.81;;;13.74;100.00
54465;BME280;40374;49.480;20.016;2022-10-16T07:36:22;95521.19;;;14.50;100.00
54465;BME280;40374;49.480;20.016;2022-10-16T07:38:49;95525.09;;;15.20;100.00
54465;BME280;40374;49.480;20.016;2022-10-16T07:41:21;95513.56;;;15.80;100.00
54465;BME280;40374;49.480;20.016;2022-10-16T07:43:50;95514.59;;;16.12;100.00
54465;BME280;40374;49.480;20.016;2022-10-16T07:46:19;95526.09;;;16.73;100.00
54465;BME280;40374;49.480;20.016;2022-10-16T07:48:48;95528.06;;;17.31;100.00
54465;BME280;40374;49.480;20.016;2022-10-16T07:51:18;95515.09;;;17.51;100.00
54465;BME280;40374;49.480;20.016;2022-10-16T07:53:46;95515.97;;;17.37;100.00
54465;BME280;40374;49.480;20.016;2022-10-16T07:56:15;95503.75;;;17.26;100.00
54465;BME280;40374;49.480;20.016;2022-10-16T07:58:43;95508.28;;;17.84;100.00
54465;BME280;40374;49.480;20.016;2022-10-16T08:01:15;95510.59;;;18.40;100.00
54465;BME280;40374;49.480;20.016;2022-10-16T08:03:44;95509.75;;;18.97;100.00
54465;BME280;40374;49.480;20.016;2022-10-16T08:06:12;95510.66;;;19.79;100.00
54465;BME280;40374;49.480;20.016;2022-10-16T08:08:40;95508.53;;;20.32;100.00
54465;BME280;40374;49.480;20.016;2022-10-16T08:11:08;95506.28;;;20.73;99.75
54465;BME280;40374;49.480;20.016;2022-10-16T08:13:37;95504.75;;;21.05;88.03
54465;BME280;40374;49.480;20.016;2022-10-16T08:16:05;95495.75;;;21.25;92.16
54465;BME280;40374;49.480;20.016;2022-10-16T08:18:40;95504.28;;;21.78;80.35
54465;BME280;40374;49.480;20.016;2022-10-16T08:21:13;95514.47;;;22.36;80.11
54465;BME280;40374;49.480;20.016;2022-10-16T08:23:48;95516.59;;;22.92;81.70
54465;BME280;40374;49.480;20.016;2022-10-16T08:26:23;95515.91;;;23.47;71.68
54465;BME280;40374;49.480;20.016;2022-10-16T08:28:51;95507.38;;;23.65;66.18
54465;BME280;40374;49.480;20.016;2022-10-16T08:31:20;95520.84;;;23.42;63.35
54465;BME280;40374;49.480;20.016;2022-10-16T08:33:47;95522.81;;;22.64;67.10
54465;BME280;40374;49.480;20.016;2022-10-16T08:36:16;95525.66;;;22.31;73.68
54465;BME280;40374;49.480;20.016;2022-10-16T08:38:43;95523.06;;;22.01;76.72
54465;BME280;40374;49.480;20.016;2022-10-16T08:47:17;95539.34;;;20.03;94.24
54465;BME280;40374;49.480;20.016;2022-10-16T08:49:54;95538.13;;;19.83;99.01
54465;BME280;40374;49.480;20.016;2022-10-16T08:52:25;95526.16;;;20.05;98.28
54465;BME280;40374;49.480;20.016;2022-10-16T08:54:55;95532.47;;;20.74;97.22
54465;BME280;40374;49.480;20.016;2022-10-16T08:57:25;95524.84;;;21.51;87.51
54465;BME280;40374;49.480;20.016;2022-10-16T08:59:55;95518.78;;;22.24;77.88
54465;BME280;40374;49.480;20.016;2022-10-16T09:02:32;95517.41;;;22.67;73.80
54465;BME280;40374;49.480;20.016;2022-10-16T09:08:01;95519.63;;;24.11;59.09
54465;BME280;40374;49.480;20.016;2022-10-16T09:10:50;95529.84;;;24.43;55.71
54465;BME280;40374;49.480;20.016;2022-10-16T09:13:28;95521.59;;;24.43;57.53
54465;BME280;40374;49.480;20.016;2022-10-16T09:19:01;95528.09;;;24.50;54.90
54465;BME280;40374;49.480;20.016;2022-10-16T09:21:32;95529.47;;;24.92;56.24
54465;BME280;40374;49.480;20.016;2022-10-16T09:24:14;95538.19;;;24.62;52.78
54465;BME280;40374;49.480;20.016;2022-10-16T09:26:43;95526.84;;;24.32;55.93
54465;BME280;40374;49.480;20.016;2022-10-16T09:29:15;95537.66;;;24.41;55.44
54465;BME280;40374;49.480;20.016;2022-10-16T09:31:43;95543.16;;;24.88;56.23
54465;BME280;40374;49.480;20.016;2022-10-16T09:34:34;95541.16;;;25.40;52.80
54465;BME280;40374;49.480;20.016;2022-10-16T09:37:04;95544.19;;;25.74;52.44
54465;BME280;40374;49.480;20.016;2022-10-16T09:39:49;95537.97;;;25.97;49.38
54465;BME280;40374;49.480;20.016;2022-10-16T09:42:27;95538.56;;;25.47;47.82
54465;BME280;40374;49.480;20.016;2022-10-16T09:44:58;95545.28;;;25.30;49.85
54465;BME280;40374;49.480;20.016;2022-10-16T09:47:27;95536.72;;;25.00;49.91
54465;BME280;40374;49.480;20.016;2022-10-16T09:49:58;95544.81;;;24.93;50.78
54465;BME280;40374;49.480;20.016;2022-10-16T09:52:30;95557.50;;;24.98;51.03
54465;BME280;40374;49.480;20.016;2022-10-16T09:55:00;95550.59;;;24.88;50.46
54465;BME280;40374;49.480;20.016;2022-10-16T09:57:29;95541.09;;;24.38;50.54
54465;BME280;40374;49.480;20.016;2022-10-16T09:59:58;95552.50;;;24.08;52.57
54465;BME280;40374;49.480;20.016;2022-10-16T10:02:36;95536.84;;;23.80;54.01
54465;BME280;40374;49.480;20.016;2022-10-16T10:05:37;95546.38;;;23.30;56.26
54465;BME280;40374;49.480;20.016;2022-10-16T10:11:01;95532.97;;;22.76;59.86
54465;BME280;40374;49.480;20.016;2022-10-16T10:13:29;95534.25;;;22.66;59.98
54465;BME280;40374;49.480;20.016;2022-10-16T10:15:57;95534.34;;;22.45;59.21
54465;BME280;40374;49.480;20.016;2022-10-16T10:18:24;95532.38;;;21.87;61.44
54465;BME280;40374;49.480;20.016;2022-10-16T10:21:01;95545.00;;;21.25;64.00
54465;BME280;40374;49.480;20.016;2022-10-16T10:23:33;95537.72;;;20.87;67.73
54465;BME280;40374;49.480;20.016;2022-10-16T10:26:20;95531.34;;;20.75;74.91
54465;BME280;40374;49.480;20.016;2022-10-16T10:28:54;95529.22;;;20.80;74.55
54465;BME280;40374;49.480;20.016;2022-10-16T10:31:49;95536.50;;;20.38;71.72
54465;BME280;40374;49.480;20.016;2022-10-16T10:45:46;95538.94;;;19.66;78.89
54465;BME280;40374;49.480;20.016;2022-10-16T10:48:47;95542.59;;;19.87;84.96
54465;BME280;40374;49.480;20.016;2022-10-16T10:51:53;95543.97;;;20.11;85.61
54465;BME280;40374;49.480;20.016;2022-10-16T10:57:09;95545.50;;;19.82;82.33
54465;BME280;40374;49.480;20.016;2022-10-16T11:05:44;95528.03;;;19.75;97.09
54465;BME280;40374;49.480;20.016;2022-10-16T11:08:22;95546.09;;;19.97;98.01
54465;BME280;40374;49.480;20.016;2022-10-16T11:10:58;95546.56;;;19.99;95.58
54465;BME280;40374;49.480;20.016;2022-10-16T11:13:37;95551.22;;;20.07;99.40
54465;BME280;40374;49.480;20.016;2022-10-16T11:21:38;95533.56;;;20.43;92.51
54465;BME280;40374;49.480;20.016;2022-10-16T11:24:16;95533.56;;;20.43;88.87
54465;BME280;40374;49.480;20.016;2022-10-16T11:26:47;95532.59;;;20.47;89.58
54465;BME280;40374;49.480;20.016;2022-10-16T11:29:21;95536.53;;;20.67;93.37
54465;BME280;40374;49.480;20.016;2022-10-16T11:31:57;95524.41;;;20.47;81.56
54465;BME280;40374;49.480;20.016;2022-10-16T11:34:49;95540.34;;;20.37;80.03
54465;BME280;40374;49.480;20.016;2022-10-16T11:37:21;95536.25;;;20.13;84.04
54465;BME280;40374;49.480;20.016;2022-10-16T11:39:54;95530.28;;;20.20;84.29
54465;BME280;40374;49.480;20.016;2022-10-16T11:42:42;95543.38;;;20.44;79.22
54465;BME280;40374;49.480;20.016;2022-10-16T11:48:02;95524.97;;;20.62;87.45
54465;BME280;40374;49.480;20.016;2022-10-16T11:50:55;95542.28;;;20.75;90.65
54465;BME280;40374;49.480;20.016;2022-10-16T11:53:41;95538.19;;;20.90;93.89
54465;BME280;40374;49.480;20.016;2022-10-16T11:56:15;95535.75;;;20.88;82.96
54465;BME280;40374;49.480;20.016;2022-10-16T11:58:51;95539.50;;;20.83;80.88
54465;BME280;40374;49.480;20.016;2022-10-16T12:01:40;95537.53;;;20.54;78.55
54465;BME280;40374;49.480;20.016;2022-10-16T12:04:15;95541.41;;;20.15;79.60
54465;BME280;40374;49.480;20.016;2022-10-16T12:06:48;95556.06;;;19.93;82.79
54465;BME280;40374;49.480;20.016;2022-10-16T12:09:31;95548.56;;;19.81;85.54
54465;BME280;40374;49.480;20.016;2022-10-16T12:11:59;95546.78;;;19.67;86.68
54465;BME280;40374;49.480;20.016;2022-10-16T12:14:39;95534.91;;;19.55;95.89
54465;BME280;40374;49.480;20.016;2022-10-16T12:17:38;95547.75;;;19.54;100.00
54465;BME280;40374;49.480;20.016;2022-10-16T12:22:55;95548.75;;;19.32;98.58
54465;BME280;40374;49.480;20.016;2022-10-16T12:28:07;95562.88;;;19.34;100.00
54465;BME280;40374;49.480;20.016;2022-10-16T12:30:53;95554.03;;;19.37;100.00
54465;BME280;40374;49.480;20.016;2022-10-16T12:35:54;95562.69;;;19.39;100.00
54465;BME280;40374;49.480;20.016;2022-10-16T12:38:28;95541.03;;;19.17;100.00
54465;BME280;40374;49.480;20.016;2022-10-16T12:41:02;95543.28;;;19.15;100.00
54465;BME280;40374;49.480;20.016;2022-10-16T12:43:41;95559.63;;;19.15;98.50
54465;BME280;40374;49.480;20.016;2022-10-16T12:48:39;95545.38;;;19.09;100.00
54465;BME280;40374;49.480;20.016;2022-10-16T12:54:13;95541.38;;;19.15;99.53
54465;BME280;40374;49.480;20.016;2022-10-16T13:02:32;95557.19;;;18.96;95.18
54465;BME280;40374;49.480;20.016;2022-10-16T13:05:26;95568.69;;;18.75;97.97
54465;BME280;40374;49.480;20.016;2022-10-16T13:24:25;95569.75;;;18.57;100.00
54465;BME280;40374;49.480;20.016;2022-10-16T13:29:34;95562.38;;;18.57;100.00
54465;BME280;40374;49.480;20.016;2022-10-16T13:32:07;95569.13;;;18.69;100.00
54465;BME280;40374;49.480;20.016;2022-10-16T13:34:47;95562.34;;;18.89;100.00
54465;BME280;40374;49.480;20.016;2022-10-16T13:37:24;95559.00;;;19.00;100.00
54465;BME280;40374;49.480;20.016;2022-10-16T13:40:09;95568.47;;;19.12;100.00
54465;BME280;40374;49.480;20.016;2022-10-16T13:42:45;95578.09;;;19.09;100.00
54465;BME280;40374;49.480;20.016;2022-10-16T13:45:20;95582.25;;;19.15;100.00
54465;BME280;40374;49.480;20.016;2022-10-16T13:47:49;95580.34;;;19.24;100.00
54465;BME280;40374;49.480;20.016;2022-10-16T13:50:18;95570.88;;;19.31;100.00
54465;BME280;40374;49.480;20.016;2022-10-16T13:52:46;95584.03;;;19.20;100.00
54465;BME280;40374;49.480;20.016;2022-10-16T13:55:16;95585.00;;;19.24;100.00
54465;BME280;40374;49.480;20.016;2022-10-16T13:57:44;95584.66;;;19.17;100.00
54465;BME280;40374;49.480;20.016;2022-10-16T14:00:24;95599.06;;;19.09;100.00
54465;BME280;40374;49.480;20.016;2022-10-16T14:03:04;95599.25;;;19.03;100.00
54465;BME280;40374;49.480;20.016;2022-10-16T14:05:33;95597.13;;;18.92;100.00
54465;BME280;40374;49.480;20.016;2022-10-16T14:08:01;95598.25;;;18.82;100.00
54465;BME280;40374;49.480;20.016;2022-10-16T14:10:31;95603.78;;;18.77;100.00
54465;BME280;40374;49.480;20.016;2022-10-16T14:13:05;95606.19;;;18.70;100.00
54465;BME280;40374;49.480;20.016;2022-10-16T14:15:35;95609.94;;;18.51;100.00
54465;BME280;40374;49.480;20.016;2022-10-16T14:18:04;95620.63;;;18.39;100.00
54465;BME280;40374;49.480;20.016;2022-10-16T14:20:33;95614.84;;;18.32;100.00
54465;BME280;40374;49.480;20.016;2022-10-16T14:23:04;95618.50;;;18.27;100.00
54465;BME280;40374;49.480;20.016;2022-10-16T14:25:32;95613.00;;;18.18;100.00
54465;BME280;40374;49.480;20.016;2022-10-16T14:28:20;95603.50;;;18.07;100.00
54465;BME280;40374;49.480;20.016;2022-10-16T14:30:51;95608.31;;;18.10;100.00
54465;BME280;40374;49.480;20.016;2022-10-16T14:38:40;95612.06;;;18.23;100.00
54465;BME280;40374;49.480;20.016;2022-10-16T14:41:08;95626.97;;;18.25;100.00
54465;BME280;40374;49.480;20.016;2022-10-16T14:43:39;95625.00;;;18.49;100.00
54465;BME280;40374;49.480;20.016;2022-10-16T14:46:18;95611.75;;;18.64;100.00